createdAt,value
2019-05-07T00:01:19.675Z,6.78
2019-05-07T00:03:52.883Z,5.65
2019-05-07T00:06:24.013Z,6.87
2019-05-07T00:08:55.287Z,5.90
2019-05-07T00:11:26.485Z,6.47
2019-05-07T00:13:57.728Z,5.55
2019-05-07T00:16:29.101Z,5.47
2019-05-07T00:19:02.069Z,4.87
2019-05-07T00:21:33.500Z,6.03
2019-05-07T00:24:05.089Z,3.80
2019-05-07T00:26:36.395Z,3.15
2019-05-07T00:29:07.780Z,3.72
2019-05-07T00:31:41.966Z,3.15
2019-05-07T00:34:15.112Z,3.17
2019-05-07T00:36:52.513Z,3.80
2019-05-07T00:39:28.555Z,3.75
2019-05-07T00:42:07.420Z,4.00
2019-05-07T00:44:55.052Z,4.15
2019-05-07T00:47:27.359Z,3.12
2019-05-07T00:50:00.362Z,3.98
2019-05-07T00:52:33.547Z,4.20
2019-05-07T00:55:06.702Z,3.95
2019-05-07T00:57:37.840Z,3.37
2019-05-07T01:00:10.237Z,3.25
2019-05-07T01:02:43.125Z,3.07
2019-05-07T01:05:15.572Z,3.62
2019-05-07T01:07:46.808Z,3.70
2019-05-07T01:10:18.201Z,3.15
2019-05-07T01:12:49.382Z,3.33
2019-05-07T01:15:31.188Z,3.00
2019-05-07T01:17:54.524Z,3.77
2019-05-07T01:20:25.793Z,4.50
2019-05-07T01:22:57.069Z,4.58
2019-05-07T01:25:28.428Z,6.00
2019-05-07T01:27:59.591Z,5.37
2019-05-07T01:30:32.478Z,5.47
2019-05-07T01:33:05.459Z,5.67
2019-05-07T01:35:44.439Z,7.60
2019-05-07T01:38:17.348Z,8.28
2019-05-07T01:40:48.691Z,9.68
2019-05-07T01:43:19.872Z,10.10
2019-05-07T01:45:52.967Z,10.38
2019-05-07T01:48:24.034Z,7.28
2019-05-07T01:50:55.314Z,7.45
2019-05-07T01:53:26.426Z,7.22
2019-05-07T01:55:57.662Z,7.62
2019-05-07T01:58:28.856Z,7.58
2019-05-07T02:01:00.081Z,9.13
2019-05-07T02:03:32.974Z,8.30
2019-05-07T02:06:05.911Z,8.18
2019-05-07T02:08:47.868Z,7.08
2019-05-07T02:11:21.851Z,7.60
2019-05-07T02:13:53.255Z,7.80
2019-05-07T02:16:24.492Z,6.87
2019-05-07T02:18:55.756Z,8.15
2019-05-07T02:21:26.996Z,6.47
2019-05-07T02:23:58.398Z,5.03
2019-05-07T02:26:29.697Z,4.83
2019-05-07T02:29:02.763Z,4.55
2019-05-07T02:31:34.046Z,8.78
2019-05-07T02:34:05.353Z,7.12
2019-05-07T02:36:37.335Z,5.00
2019-05-07T02:39:29.011Z,4.72
2019-05-07T02:42:03.474Z,5.55
2019-05-07T02:44:34.805Z,9.10
2019-05-07T02:47:12.884Z,8.55
2019-05-07T02:49:48.154Z,6.20
2019-05-07T02:52:23.750Z,5.70
2019-05-07T02:54:56.511Z,10.20
2019-05-07T02:57:29.250Z,8.85
2019-05-07T03:00:04.135Z,9.33
2019-05-07T03:02:33.419Z,7.35
2019-05-07T03:05:05.986Z,8.10
2019-05-07T03:07:38.378Z,12.40
2019-05-07T03:10:10.107Z,13.08
2019-05-07T03:12:42.988Z,8.28
2019-05-07T03:15:14.405Z,7.72
2019-05-07T03:17:45.639Z,7.75
2019-05-07T03:20:18.588Z,8.43
2019-05-07T03:22:49.851Z,7.92
2019-05-07T03:25:28.511Z,8.58
2019-05-07T03:27:59.630Z,7.87
2019-05-07T03:30:38.493Z,6.47
2019-05-07T03:33:15.707Z,5.72
2019-05-07T03:35:47.237Z,6.83
2019-05-07T03:38:18.671Z,11.95
2019-05-07T03:40:52.935Z,12.05
2019-05-07T03:43:24.793Z,12.15
2019-05-07T03:46:15.941Z,11.88
2019-05-07T03:48:47.520Z,14.93
2019-05-07T03:51:18.761Z,14.25
2019-05-07T03:53:50.004Z,12.70
2019-05-07T03:56:23.715Z,11.03
2019-05-07T03:58:54.391Z,12.43
2019-05-07T04:01:25.829Z,9.90
2019-05-07T04:03:56.994Z,11.53
2019-05-07T04:06:28.253Z,11.73
2019-05-07T04:08:59.488Z,11.12
2019-05-07T04:11:54.967Z,10.32
2019-05-07T04:14:26.279Z,8.93
2019-05-07T04:17:13.312Z,8.38
2019-05-07T04:19:32.823Z,8.78
2019-05-07T04:22:04.244Z,7.08
2019-05-07T04:27:26.664Z,14.38
2019-05-07T04:29:57.958Z,10.75
2019-05-07T04:32:33.651Z,12.65
2019-05-07T04:35:18.746Z,8.38
2019-05-07T04:37:50.004Z,8.83
2019-05-07T04:40:23.999Z,8.10
2019-05-07T04:42:54.289Z,7.85
2019-05-07T04:45:25.657Z,8.85
2019-05-07T04:47:56.774Z,7.90
2019-05-07T04:50:41.432Z,8.55
2019-05-07T04:53:03.000Z,8.48
2019-05-07T04:55:34.515Z,6.53
2019-05-07T04:58:08.822Z,5.87
2019-05-07T05:00:38.955Z,5.17
2019-05-07T05:03:12.975Z,5.22
2019-05-07T05:05:44.226Z,5.42
2019-05-07T05:08:15.479Z,6.03
2019-05-07T05:10:46.617Z,5.03
2019-05-07T05:13:17.816Z,6.42
2019-05-07T05:15:48.937Z,5.50
2019-05-07T05:18:21.891Z,5.12
2019-05-07T05:21:04.149Z,5.15
2019-05-07T05:23:52.525Z,5.87
2019-05-07T05:26:23.877Z,5.17
2019-05-07T05:28:55.233Z,6.95
2019-05-07T05:31:26.675Z,6.87
2019-05-07T05:33:57.812Z,10.90
2019-05-07T05:36:29.118Z,9.70
2019-05-07T05:39:02.501Z,11.60
2019-05-07T05:41:37.507Z,14.93
2019-05-07T05:44:08.848Z,8.33
2019-05-07T05:46:42.706Z,11.30
2019-05-07T05:51:45.494Z,8.15
2019-05-07T05:54:31.831Z,9.00
2019-05-07T05:57:08.230Z,10.65
2019-05-07T05:59:54.526Z,11.70
2019-05-07T06:02:43.862Z,9.63
2019-05-07T06:05:34.397Z,12.65
2019-05-07T06:08:17.539Z,9.95
2019-05-07T06:11:05.536Z,9.18
2019-05-07T06:13:39.119Z,8.70
2019-05-07T06:16:16.118Z,7.47
2019-05-07T06:18:52.549Z,7.70
2019-05-07T06:21:41.950Z,7.22
2019-05-07T06:24:17.881Z,7.33
2019-05-07T06:26:49.110Z,7.87
2019-05-07T06:29:22.990Z,8.80
2019-05-07T06:32:04.198Z,8.85
2019-05-07T06:34:35.402Z,10.08
2019-05-07T06:37:06.860Z,9.30
2019-05-07T06:39:52.971Z,11.43
2019-05-07T06:42:35.203Z,11.95
2019-05-07T06:45:22.794Z,15.60
2019-05-07T06:47:54.361Z,13.58
2019-05-07T06:50:25.713Z,12.68
2019-05-07T06:52:57.147Z,8.45
2019-05-07T06:55:28.431Z,6.58
2019-05-07T06:57:59.763Z,5.35
2019-05-07T07:00:38.550Z,4.92
2019-05-07T07:03:12.706Z,4.03
2019-05-07T07:05:46.819Z,3.22
2019-05-07T07:08:23.078Z,4.10
2019-05-07T07:11:02.742Z,3.55
2019-05-07T07:13:35.211Z,3.60
2019-05-07T07:16:06.501Z,4.67
2019-05-07T07:18:48.500Z,3.83
2019-05-07T07:21:09.611Z,3.60
2019-05-07T07:23:42.936Z,2.92
2019-05-07T07:26:14.008Z,2.98
2019-05-07T07:28:45.319Z,3.70
2019-05-07T07:31:26.916Z,3.45
2019-05-07T07:34:02.072Z,3.15
2019-05-07T07:36:34.516Z,3.60
2019-05-07T07:39:08.032Z,4.00
2019-05-07T07:41:42.152Z,3.10
2019-05-07T07:44:13.548Z,3.25
2019-05-07T07:46:44.997Z,3.42
2019-05-07T07:49:16.281Z,3.35
2019-05-07T07:51:47.522Z,3.90
2019-05-07T07:54:18.697Z,3.40
2019-05-07T07:56:57.804Z,3.40
2019-05-07T07:59:42.531Z,2.80
2019-05-07T08:02:18.411Z,2.80
2019-05-07T08:04:49.706Z,3.98
2019-05-07T08:07:22.837Z,5.15
2019-05-07T08:09:53.955Z,3.55
2019-05-07T08:12:25.159Z,2.35
2019-05-07T08:15:13.506Z,2.58
2019-05-07T08:17:29.358Z,2.87
2019-05-07T08:20:02.535Z,2.90
2019-05-07T08:22:34.676Z,2.67
2019-05-07T08:25:07.586Z,2.60
2019-05-07T08:27:38.868Z,2.55
2019-05-07T08:30:12.857Z,2.42
2019-05-07T08:32:52.948Z,2.12
2019-05-07T08:35:34.843Z,8.13
2019-05-07T08:38:06.195Z,2.47
2019-05-07T08:40:37.521Z,3.25
2019-05-07T08:43:08.785Z,2.65
2019-05-07T08:45:52.473Z,2.40
2019-05-07T08:48:28.570Z,2.22
2019-05-07T08:50:59.882Z,2.80
2019-05-07T08:53:32.841Z,2.40
2019-05-07T08:56:04.345Z,2.45
2019-05-07T08:58:35.742Z,2.10
2019-05-07T09:01:07.237Z,3.15
2019-05-07T09:03:44.769Z,2.10
2019-05-07T09:06:17.844Z,2.35
2019-05-07T09:08:49.168Z,1.65
2019-05-07T09:11:22.928Z,1.60
2019-05-07T09:13:53.448Z,2.10
2019-05-07T09:16:24.977Z,3.87
2019-05-07T09:18:56.322Z,2.70
2019-05-07T09:21:45.822Z,1.98
2019-05-07T09:24:18.834Z,2.35
2019-05-07T09:27:02.781Z,2.70
2019-05-07T09:29:44.829Z,2.17
2019-05-07T09:32:26.785Z,2.15
2019-05-07T09:35:02.430Z,2.10
2019-05-07T09:37:34.781Z,1.75
2019-05-07T09:40:07.374Z,2.00
2019-05-07T09:42:38.766Z,2.05
2019-05-07T09:45:12.129Z,2.75
2019-05-07T09:47:43.684Z,2.17
2019-05-07T09:50:15.639Z,2.70
2019-05-07T09:52:46.876Z,2.17
2019-05-07T09:55:19.248Z,2.43
2019-05-07T09:57:52.591Z,2.02
2019-05-07T10:00:25.463Z,2.50
2019-05-07T10:05:28.184Z,3.47
2019-05-07T10:08:01.665Z,3.25
2019-05-07T10:10:33.033Z,4.47
2019-05-07T10:13:08.972Z,3.40
2019-05-07T10:15:41.840Z,2.55
2019-05-07T10:20:45.622Z,2.83
2019-05-07T10:23:22.413Z,3.20
2019-05-07T10:25:53.922Z,3.22
2019-05-07T10:28:25.351Z,3.60
2019-05-07T10:30:56.798Z,3.37
2019-05-07T10:33:28.412Z,3.52
2019-05-07T10:36:01.939Z,4.10
2019-05-07T10:41:03.344Z,3.95
2019-05-07T10:43:34.987Z,3.33
2019-05-07T10:46:13.949Z,3.70
2019-05-07T10:48:47.870Z,3.02
2019-05-07T10:51:21.694Z,2.17
2019-05-07T10:53:52.713Z,3.52
2019-05-07T10:56:24.007Z,3.30
2019-05-07T10:58:55.390Z,3.70
2019-05-07T11:01:28.528Z,3.50
2019-05-07T11:06:32.292Z,3.02
2019-05-07T11:11:35.082Z,3.47
2019-05-07T11:14:06.284Z,2.80
2019-05-07T11:16:55.247Z,3.70
2019-05-07T11:19:26.677Z,2.92
2019-05-07T11:21:58.177Z,2.58
2019-05-07T11:24:29.480Z,4.00
2019-05-07T11:27:02.436Z,3.15
2019-05-07T11:32:06.115Z,3.00
2019-05-07T11:34:39.646Z,4.35
2019-05-07T11:39:44.350Z,3.22
2019-05-07T11:42:22.959Z,2.42
2019-05-07T11:44:55.023Z,2.77
2019-05-07T11:47:28.165Z,2.63
2019-05-07T11:50:17.229Z,2.80
2019-05-07T11:52:56.243Z,2.50
2019-05-07T11:55:27.559Z,2.50
2019-05-07T11:57:58.788Z,3.33
2019-05-07T12:00:32.352Z,3.10
2019-05-07T12:03:03.966Z,2.98
2019-05-07T12:05:36.302Z,3.07
2019-05-07T12:08:07.541Z,2.75
2019-05-07T12:10:38.826Z,2.62
2019-05-07T12:13:12.286Z,2.92
2019-05-07T12:15:43.055Z,3.27
2019-05-07T12:18:14.268Z,3.22
2019-05-07T12:20:45.626Z,3.45
2019-05-07T12:23:16.878Z,4.03
2019-05-07T12:25:48.094Z,4.25
2019-05-07T12:28:19.718Z,4.80
2019-05-07T12:31:08.876Z,4.00
2019-05-07T12:33:42.783Z,5.67
2019-05-07T12:36:15.788Z,5.62
2019-05-07T12:38:47.026Z,7.60
2019-05-07T12:41:33.237Z,5.35
2019-05-07T12:44:06.353Z,5.20
2019-05-07T12:46:38.126Z,5.62
2019-05-07T12:49:09.380Z,5.65
2019-05-07T12:51:58.605Z,6.20
2019-05-07T12:54:34.651Z,14.73
2019-05-07T12:57:04.709Z,4.62
2019-05-07T12:59:36.037Z,5.75
2019-05-07T13:02:21.834Z,5.72
2019-05-07T13:04:44.660Z,4.28
2019-05-07T13:07:17.596Z,5.30
2019-05-07T13:09:48.982Z,4.90
2019-05-07T13:12:21.731Z,5.95
2019-05-07T13:17:23.496Z,5.20
2019-05-07T13:19:54.716Z,5.45
2019-05-07T13:22:25.913Z,7.62
2019-05-07T13:24:57.116Z,6.22
2019-05-07T13:27:28.458Z,6.50
2019-05-07T13:30:02.377Z,5.37
2019-05-07T13:32:34.403Z,5.20
2019-05-07T13:35:07.471Z,4.53
2019-05-07T13:37:43.959Z,4.72
2019-05-07T13:40:19.716Z,4.53
2019-05-07T13:42:58.813Z,4.20
2019-05-07T13:46:02.479Z,4.65
2019-05-07T13:48:37.126Z,5.10
2019-05-07T13:51:08.559Z,4.20
2019-05-07T13:53:40.046Z,4.55
2019-05-07T13:56:13.142Z,5.10
2019-05-07T13:58:44.484Z,4.83
2019-05-07T14:01:32.954Z,4.05
2019-05-07T14:04:04.401Z,4.17
2019-05-07T14:06:38.472Z,3.72
2019-05-07T14:09:14.166Z,3.92
2019-05-07T14:11:45.431Z,4.45
2019-05-07T14:14:17.702Z,4.57
2019-05-07T14:16:48.955Z,5.40
2019-05-07T14:19:22.160Z,5.30
2019-05-07T14:21:53.237Z,5.65
2019-05-07T14:37:32.462Z,10.60
2019-05-07T14:40:07.927Z,21.27
2019-05-07T14:42:41.931Z,17.90
2019-05-07T14:45:13.796Z,9.40
2019-05-07T14:47:47.020Z,8.23
2019-05-07T14:50:22.586Z,10.03
2019-05-07T14:52:55.205Z,7.58
2019-05-07T14:55:26.766Z,6.37
2019-05-07T14:57:58.049Z,6.35
2019-05-07T15:00:29.335Z,5.30
2019-05-07T15:03:01.968Z,5.05
2019-05-07T15:05:33.257Z,6.55
2019-05-07T15:08:10.754Z,5.72
2019-05-07T15:10:37.481Z,5.87
2019-05-07T15:13:08.840Z,5.10
2019-05-07T15:15:40.288Z,7.97
2019-05-07T15:18:32.135Z,7.58
2019-05-07T15:21:02.993Z,8.85
2019-05-07T15:23:35.971Z,6.47
2019-05-07T15:26:07.181Z,4.83
2019-05-07T15:28:41.751Z,5.17
2019-05-07T15:31:18.697Z,6.90
2019-05-07T15:33:52.167Z,8.23
2019-05-07T15:36:23.229Z,10.25
2019-05-07T15:38:54.705Z,10.25
2019-05-07T15:41:26.109Z,9.85
2019-05-07T15:43:57.621Z,15.05
2019-05-07T15:46:29.013Z,15.10
2019-05-07T15:49:01.831Z,13.70
2019-05-07T15:51:33.251Z,11.28
2019-05-07T15:54:04.754Z,8.83
2019-05-07T15:56:36.047Z,7.37
2019-05-07T15:59:07.442Z,5.17
2019-05-07T16:01:38.668Z,4.65
2019-05-07T16:04:19.992Z,3.90
2019-05-07T16:06:43.105Z,5.50
2019-05-07T16:09:15.733Z,13.38
2019-05-07T16:11:47.051Z,16.07
2019-05-07T16:14:20.053Z,20.62
2019-05-07T16:16:51.981Z,18.45
2019-05-07T16:19:25.112Z,16.52
2019-05-07T16:21:58.306Z,15.70
2019-05-07T16:24:31.792Z,13.53
2019-05-07T16:27:05.131Z,12.40
2019-05-07T16:29:36.001Z,11.63
2019-05-07T16:32:07.606Z,10.55
2019-05-07T16:34:38.994Z,10.80
2019-05-07T16:37:12.205Z,10.82
2019-05-07T16:39:43.518Z,10.18
2019-05-07T16:42:15.890Z,10.70
2019-05-07T16:44:47.265Z,10.65
2019-05-07T16:47:18.881Z,10.53
2019-05-07T16:49:50.330Z,10.93
2019-05-07T16:52:22.510Z,10.53
2019-05-07T16:54:53.986Z,9.70
2019-05-07T16:57:31.830Z,10.35
2019-05-07T17:00:04.701Z,9.05
2019-05-07T17:05:15.301Z,8.90
2019-05-07T17:07:52.153Z,7.57
2019-05-07T17:10:23.526Z,7.65
2019-05-07T17:12:54.824Z,8.00
2019-05-07T17:15:26.198Z,7.85
2019-05-07T17:18:02.552Z,10.45
2019-05-07T17:20:33.647Z,11.63
2019-05-07T17:23:04.959Z,12.25
2019-05-07T17:25:39.455Z,12.58
2019-05-07T17:28:12.594Z,12.23
2019-05-07T17:33:14.494Z,12.88
2019-05-07T17:35:46.310Z,15.20
2019-05-07T17:38:17.766Z,21.02
2019-05-07T17:40:49.221Z,22.22
2019-05-07T17:43:21.945Z,22.02
2019-05-07T17:45:53.708Z,19.82
2019-05-07T17:48:25.296Z,15.68
2019-05-07T17:50:58.456Z,11.93
2019-05-07T17:53:31.874Z,11.40
2019-05-07T17:56:02.950Z,9.40
2019-05-07T17:58:34.351Z,9.85
2019-05-07T18:01:05.972Z,9.08
2019-05-07T18:03:39.120Z,9.33
2019-05-07T18:06:12.370Z,10.35
2019-05-07T18:08:43.342Z,10.48
2019-05-07T18:11:20.837Z,9.28
2019-05-07T18:13:47.737Z,9.63
2019-05-07T18:16:29.533Z,9.23
2019-05-07T18:19:02.098Z,7.80
2019-05-07T18:21:33.711Z,7.37
2019-05-07T18:24:13.814Z,8.03
2019-05-07T18:26:38.103Z,7.35
2019-05-07T18:29:09.390Z,8.13
2019-05-07T18:31:45.164Z,7.35
2019-05-07T18:34:16.973Z,9.53
2019-05-07T18:36:48.290Z,7.97
2019-05-07T18:39:20.420Z,7.17
2019-05-07T18:41:52.277Z,11.88
2019-05-07T18:44:23.993Z,9.83
2019-05-07T18:46:55.282Z,7.90
2019-05-07T18:49:26.637Z,7.40
2019-05-07T18:51:58.055Z,7.10
2019-05-07T18:54:31.274Z,7.50
2019-05-07T18:57:02.508Z,6.45
2019-05-07T18:59:35.438Z,6.25
2019-05-07T19:02:06.780Z,5.87
2019-05-07T19:04:38.050Z,6.75
2019-05-07T19:07:09.247Z,6.58
2019-05-07T19:09:42.424Z,6.15
2019-05-07T19:12:15.216Z,5.45
2019-05-07T19:14:46.369Z,6.33
2019-05-07T19:17:17.663Z,6.65
2019-05-07T19:19:49.167Z,7.45
2019-05-07T19:22:22.222Z,7.90
2019-05-07T19:24:54.687Z,6.97
2019-05-07T19:27:25.926Z,8.63
2019-05-07T19:29:57.130Z,11.00
2019-05-07T19:32:28.715Z,11.03
2019-05-07T19:35:00.108Z,9.58
2019-05-07T19:37:32.044Z,7.37
2019-05-07T19:40:04.731Z,7.70
2019-05-07T19:42:35.968Z,7.93
2019-05-07T19:45:07.262Z,8.53
2019-05-07T19:47:38.658Z,7.33
2019-05-07T19:50:09.951Z,6.37
2019-05-07T19:52:42.614Z,6.65
2019-05-07T19:55:15.115Z,6.22
2019-05-07T19:57:47.978Z,6.45
2019-05-07T20:00:19.693Z,6.90
2019-05-07T20:02:55.668Z,6.55
2019-05-07T20:05:26.948Z,6.03
2019-05-07T20:08:01.970Z,7.35
2019-05-07T20:10:33.159Z,9.20
2019-05-07T20:13:05.551Z,9.38
2019-05-07T20:15:38.492Z,10.32
2019-05-07T20:18:12.270Z,10.30
2019-05-07T20:20:42.940Z,10.03
2019-05-07T20:23:14.393Z,10.08
2019-05-07T20:25:45.899Z,10.78
2019-05-07T20:28:18.363Z,11.03
2019-05-07T20:30:49.817Z,11.20
2019-05-07T20:33:22.002Z,11.35
2019-05-07T20:35:53.742Z,10.35
2019-05-07T20:38:25.526Z,11.35
2019-05-07T20:40:57.167Z,10.80
2019-05-07T20:43:29.224Z,10.25
2019-05-07T20:46:02.667Z,9.83
2019-05-07T20:48:34.995Z,10.15
2019-05-07T20:51:07.977Z,9.75
2019-05-07T20:53:54.658Z,8.83
2019-05-07T20:56:37.197Z,9.20
2019-05-07T20:59:08.641Z,9.05
2019-05-07T21:01:41.989Z,9.10
2019-05-07T21:04:14.276Z,8.38
2019-05-07T21:06:45.515Z,8.63
2019-05-07T21:09:16.929Z,8.93
2019-05-07T21:11:48.301Z,9.83
2019-05-07T21:14:19.649Z,10.98
2019-05-07T21:16:51.882Z,10.93
2019-05-07T21:19:23.432Z,10.48
2019-05-07T21:21:55.294Z,10.23
2019-05-07T21:24:26.892Z,10.32
2019-05-07T21:26:58.596Z,10.70
2019-05-07T21:29:29.957Z,11.45
2019-05-07T21:32:03.287Z,10.03
2019-05-07T21:37:08.408Z,11.03
2019-05-07T21:39:38.340Z,9.98
2019-05-07T21:42:09.586Z,9.88
2019-05-07T21:44:42.955Z,10.58
2019-05-07T21:47:13.686Z,10.45
2019-05-07T21:49:44.959Z,11.03
2019-05-07T21:52:16.383Z,10.90
2019-05-07T21:54:52.466Z,9.45
2019-05-07T21:57:26.621Z,9.28
2019-05-07T22:00:02.386Z,9.73
2019-05-07T22:02:35.243Z,8.80
2019-05-07T22:05:07.030Z,8.45
2019-05-07T22:07:38.437Z,8.83
2019-05-07T22:10:09.768Z,8.08
2019-05-07T22:12:41.036Z,8.20
2019-05-07T22:15:15.107Z,7.00
2019-05-07T22:17:46.778Z,7.72
2019-05-07T22:20:18.024Z,7.83
2019-05-07T22:22:49.482Z,8.80
2019-05-07T22:25:22.165Z,9.58
2019-05-07T22:27:55.204Z,9.23
2019-05-07T22:30:32.390Z,9.03
2019-05-07T22:33:22.440Z,8.20
2019-05-07T22:35:53.972Z,7.60
2019-05-07T22:38:27.061Z,7.30
2019-05-07T22:41:02.050Z,7.17
2019-05-07T22:43:34.663Z,7.28
2019-05-07T22:46:06.328Z,8.00
2019-05-07T22:48:37.681Z,8.30
2019-05-07T22:51:09.452Z,7.62
2019-05-07T22:53:40.581Z,9.38
2019-05-07T22:56:14.086Z,9.20
2019-05-07T22:58:46.965Z,8.33
2019-05-07T23:01:19.912Z,8.28
2019-05-07T23:03:51.838Z,8.70
2019-05-07T23:06:24.111Z,7.90
2019-05-07T23:08:55.493Z,7.62
2019-05-07T23:11:27.087Z,7.20
2019-05-07T23:13:58.497Z,9.13
2019-05-07T23:16:29.990Z,7.70
2019-05-07T23:19:01.544Z,8.90
2019-05-07T23:21:33.199Z,7.70
2019-05-07T23:24:04.425Z,8.15
2019-05-07T23:26:47.396Z,8.25
2019-05-07T23:29:08.458Z,8.48
2019-05-07T23:31:39.672Z,8.33
2019-05-07T23:34:12.532Z,8.73
2019-05-07T23:36:44.264Z,9.25
2019-05-07T23:39:17.352Z,9.48
2019-05-07T23:41:50.125Z,8.55
2019-05-07T23:44:22.898Z,7.42
2019-05-07T23:46:54.347Z,8.08
2019-05-07T23:49:25.729Z,8.35
2019-05-07T23:51:56.849Z,8.93
2019-05-07T23:54:27.981Z,9.85
2019-05-07T23:57:07.123Z,9.73
2019-05-07T23:59:32.980Z,9.78
